Time;durP1;ratioP1;P1;durP2;ratioP2;P2;SDS_P1;SDS_P2;PMS_P1;PMS_P2;Temp;Humidity;BMP_temperature;BMP_pressure;BME280_temperature;BME280_humidity;BME280_pressure;Samples;Min_cycle;Max_cycle;Signal;HPM_P1;HPM_P2
2022/09/08 00:01:55;;;;;;;4.43;2.63;;;;;;;18.50;100.00;98397.66;5122941;28;20696;-81
2022/09/08 00:04:23;;;;;;;3.30;2.40;;;;;;;18.39;100.00;98395.28;5132028;27;20645;-81
2022/09/08 00:06:53;;;;;;;3.17;2.27;;;;;;;18.19;100.00;98392.94;5130858;27;20194;-81
2022/09/08 00:09:22;;;;;;;4.27;2.60;;;;;;;18.24;100.00;98398.66;5129045;27;20258;-81
2022/09/08 00:11:51;;;;;;;4.43;2.60;;;;;;;18.22;100.00;98389.91;5130479;27;20649;-81
2022/09/08 00:14:20;;;;;;;2.93;2.20;;;;;;;18.30;100.00;98381.03;5137168;27;20182;-81
2022/09/08 00:16:51;;;;;;;3.77;2.90;;;;;;;18.35;100.00;98380.56;5130113;27;20240;-81
2022/09/08 00:19:19;;;;;;;2.50;2.20;;;;;;;18.41;100.00;98386.06;5132855;27;20335;-81
2022/09/08 00:21:47;;;;;;;3.30;2.33;;;;;;;18.29;100.00;98380.19;5129954;27;20661;-81
2022/09/08 00:24:15;;;;;;;4.53;2.70;;;;;;;18.27;100.00;98376.03;5128088;27;20202;-81
2022/09/08 00:26:44;;;;;;;4.07;2.23;;;;;;;18.28;100.00;98375.00;5131067;27;20235;-81
2022/09/08 00:29:12;;;;;;;6.70;2.23;;;;;;;18.29;100.00;98372.16;5136635;27;20668;-81
2022/09/08 00:31:42;;;;;;;3.73;2.60;;;;;;;18.46;100.00;98362.28;5131443;27;20198;-80
2022/09/08 00:34:12;;;;;;;7.60;2.63;;;;;;;18.60;100.00;98355.41;5132241;27;20239;-81
2022/09/08 00:36:41;;;;;;;4.33;2.70;;;;;;;18.58;100.00;98344.84;5131685;27;20191;-81
2022/09/08 00:39:09;;;;;;;5.67;2.77;;;;;;;18.52;100.00;98344.66;5131992;27;20688;-81
2022/09/08 00:41:37;;;;;;;4.30;2.63;;;;;;;18.53;100.00;98344.53;5133522;27;20274;-81
2022/09/08 00:44:37;;;;;;;3.73;2.73;;;;;;;18.60;100.00;98345.50;5132360;27;20268;-81
2022/09/08 00:47:07;;;;;;;4.97;2.40;;;;;;;18.48;100.00;98333.44;5131519;27;20186;-81
2022/09/08 00:49:50;;;;;;;3.30;2.40;;;;;;;18.22;100.00;98346.19;5134813;27;20214;-81
2022/09/08 00:52:21;;;;;;;3.50;2.57;;;;;;;18.21;100.00;98342.66;5133250;27;20198;-81
2022/09/08 00:54:51;;;;;;;3.53;2.57;;;;;;;18.17;100.00;98327.09;5128639;27;20225;-81
2022/09/08 00:57:20;;;;;;;5.03;2.50;;;;;;;18.16;100.00;98334.28;5129761;27;20194;-81
2022/09/08 00:59:51;;;;;;;3.80;2.20;;;;;;;18.12;100.00;98334.78;5133190;27;20210;-81
2022/09/08 01:02:25;;;;;;;3.20;2.40;;;;;;;18.07;100.00;98334.47;5076730;27;20187;-81
2022/09/08 01:04:58;;;;;;;4.20;2.40;;;;;;;18.07;100.00;98334.47;5127611;27;20218;-81
2022/09/08 01:13:35;;;;;;;3.60;2.60;;;;;;;18.16;100.00;98345.03;5135811;27;20191;-81
2022/09/08 01:16:04;;;;;;;4.00;2.87;;;;;;;18.16;100.00;98346.88;5130842;27;20194;-80
2022/09/08 01:18:33;;;;;;;4.00;2.77;;;;;;;18.23;100.00;98358.56;5124276;27;20225;-81
2022/09/08 01:21:13;;;;;;;5.17;2.60;;;;;;;18.10;100.00;98367.13;5127397;27;20286;-80
2022/09/08 01:24:30;;;;;;;3.47;2.80;;;;;;;18.18;100.00;98379.69;5131434;27;20234;-81
2022/09/08 01:27:22;;;;;;;4.77;2.87;;;;;;;17.99;100.00;98396.91;5051152;28;20240;-81
2022/09/08 01:29:56;;;;;;;4.67;3.00;;;;;;;17.44;100.00;98416.91;5049573;28;20258;-80
2022/09/08 01:32:25;;;;;;;4.40;2.87;;;;;;;17.66;100.00;98431.59;5106799;27;20198;-80
2022/09/08 01:34:53;;;;;;;5.83;2.80;;;;;;;17.74;100.00;98431.66;5129938;27;20198;-80
2022/09/08 01:37:22;;;;;;;5.80;3.03;;;;;;;17.69;100.00;98428.63;5129103;27;20229;-80
2022/09/08 01:39:51;;;;;;;5.93;2.80;;;;;;;17.65;100.00;98421.88;5131731;27;20333;-80
2022/09/08 01:42:22;;;;;;;3.60;3.10;;;;;;;17.86;100.00;98432.22;5129288;27;20667;-80
2022/09/08 01:44:50;;;;;;;4.37;3.10;;;;;;;17.62;100.00;98426.72;5132516;27;20182;-80
2022/09/08 01:47:18;;;;;;;5.40;3.13;;;;;;;17.85;100.00;98429.69;5129897;27;20233;-80
2022/09/08 01:49:46;;;;;;;5.00;3.20;;;;;;;17.98;100.00;98443.47;5125004;27;20226;-80
2022/09/08 01:52:15;;;;;;;7.00;3.60;;;;;;;18.07;100.00;98436.31;5089188;27;20222;-80
2022/09/08 01:54:45;;;;;;;4.23;2.93;;;;;;;18.26;100.00;98434.16;5128167;27;20228;-81
2022/09/08 01:57:13;;;;;;;4.27;3.40;;;;;;;18.21;100.00;98430.28;5124653;27;20182;-80
2022/09/08 01:59:43;;;;;;;4.10;2.97;;;;;;;18.16;100.00;98425.44;5124708;27;20226;-81
2022/09/08 02:02:13;;;;;;;4.37;3.30;;;;;;;18.31;100.00;98414.88;5124336;27;20199;-81
2022/09/08 02:04:42;;;;;;;4.00;3.07;;;;;;;18.30;100.00;98419.41;5129587;27;20190;-81
2022/09/08 02:07:37;;;;;;;3.07;2.77;;;;;;;18.33;100.00;98428.13;5129448;27;20226;-81
2022/09/08 02:10:09;;;;;;;3.40;3.00;;;;;;;18.35;100.00;98426.13;5129419;27;20667;-81
2022/09/08 02:12:37;;;;;;;4.80;3.00;;;;;;;18.33;100.00;98422.75;5126981;27;20225;-81
2022/09/08 02:15:11;;;;;;;3.90;2.90;;;;;;;18.37;100.00;98418.75;5130995;27;20190;-81
2022/09/08 02:17:41;;;;;;;4.43;3.10;;;;;;;18.28;100.00;98413.38;5125569;27;20197;-80
2022/09/08 02:20:11;;;;;;;4.13;3.20;;;;;;;18.30;100.00;98410.53;5124662;27;20317;-81
2022/09/08 02:22:41;;;;;;;3.57;2.73;;;;;;;18.35;100.00;98416.25;5124160;27;20599;-81
2022/09/08 02:25:09;;;;;;;3.83;3.07;;;;;;;18.37;100.00;98413.41;5127587;27;20198;-81
2022/09/08 02:27:39;;;;;;;3.73;3.10;;;;;;;18.29;100.00;98417.75;5133618;27;20625;-81
2022/09/08 02:30:14;;;;;;;4.50;3.07;;;;;;;18.23;100.00;98410.34;5127208;27;20191;-80
2022/09/08 02:32:43;;;;;;;4.20;3.30;;;;;;;18.15;100.00;98407.69;5121758;27;20210;-81
2022/09/08 02:35:17;;;;;;;5.83;3.60;;;;;;;18.02;100.00;98408.13;5125546;27;20710;-81
2022/09/08 02:37:47;;;;;;;7.37;3.50;;;;;;;17.93;100.00;98425.19;5086519;28;20334;-81
2022/09/08 02:40:15;;;;;;;4.37;3.53;;;;;;;17.96;100.00;98414.16;5082284;28;20774;-80
2022/09/08 02:42:45;;;;;;;5.43;3.70;;;;;;;18.02;100.00;98418.00;5084369;28;20191;-80
2022/09/08 02:45:15;;;;;;;5.93;3.63;;;;;;;17.98;100.00;98419.34;5086246;28;20200;-80
2022/09/08 02:47:44;;;;;;;6.03;3.47;;;;;;;17.93;100.00;98421.66;5087068;28;20196;-80
2022/09/08 02:50:13;;;;;;;5.63;3.87;;;;;;;18.01;100.00;98424.38;5087761;28;20710;-80
2022/09/08 02:52:41;;;;;;;4.40;3.90;;;;;;;17.90;100.00;98420.16;5088687;28;20188;-80
2022/09/08 02:55:09;;;;;;;4.50;3.40;;;;;;;17.78;100.00;98426.81;5084258;28;20196;-81
2022/09/08 02:57:38;;;;;;;4.80;3.70;;;;;;;17.91;100.00;98426.34;5084378;28;20203;-81
2022/09/08 03:00:09;;;;;;;6.70;4.40;;;;;;;17.89;100.00;98421.16;5079327;28;20241;-81
2022/09/08 03:02:40;;;;;;;5.60;4.03;;;;;;;17.94;100.00;98417.97;5085555;28;20196;-81
2022/09/08 03:05:09;;;;;;;8.47;4.37;;;;;;;17.80;100.00;98422.13;5083871;28;20253;-81
2022/09/08 03:07:38;;;;;;;8.83;4.10;;;;;;;17.97;100.00;98425.72;5081226;28;20226;-81
2022/09/08 03:10:08;;;;;;;6.80;4.40;;;;;;;17.96;100.00;98424.03;5130663;27;20244;-81
2022/09/08 03:12:36;;;;;;;5.23;3.93;;;;;;;18.07;100.00;98422.91;5126809;28;20679;-81
2022/09/08 03:15:05;;;;;;;5.97;4.23;;;;;;;17.86;100.00;98413.47;5133849;28;20202;-81
2022/09/08 03:17:34;;;;;;;6.47;4.33;;;;;;;17.91;100.00;98426.34;5080723;28;20645;-81
2022/09/08 03:20:05;;;;;;;6.17;4.30;;;;;;;17.67;100.00;98419.06;5131154;28;20183;-81
2022/09/08 03:22:33;;;;;;;8.17;4.87;;;;;;;17.72;100.00;98416.75;5130861;28;20271;-79
2022/09/08 03:25:01;;;;;;;7.90;4.47;;;;;;;17.72;100.00;98422.94;5125845;28;20210;-79
2022/09/08 03:27:29;;;;;;;8.13;4.40;;;;;;;17.61;100.00;98417.00;5133820;28;20275;-79
2022/09/08 03:29:57;;;;;;;8.37;4.67;;;;;;;17.60;100.00;98418.84;5131561;28;20190;-79
2022/09/08 03:32:26;;;;;;;7.67;4.73;;;;;;;17.55;100.00;98420.31;5130295;28;20186;-79
2022/09/08 03:34:56;;;;;;;7.57;4.67;;;;;;;17.69;100.00;98423.28;5126343;28;20186;-79
2022/09/08 03:37:28;;;;;;;8.60;5.07;;;;;;;17.53;100.00;98425.84;5125954;28;20368;-79
2022/09/08 03:39:56;;;;;;;6.57;5.13;;;;;;;17.46;100.00;98428.31;5131908;27;20190;-79
2022/09/08 03:42:25;;;;;;;9.30;5.33;;;;;;;17.69;100.00;98439.34;5137825;27;20214;-80
2022/09/08 03:44:54;;;;;;;6.97;5.17;;;;;;;17.69;100.00;98435.78;5132235;27;20214;-79
2022/09/08 03:47:22;;;;;;;5.70;5.10;;;;;;;17.58;100.00;98434.25;5129466;27;20226;-82
2022/09/08 03:49:51;;;;;;;7.63;5.33;;;;;;;17.53;100.00;98433.03;5130876;27;20229;-80
2022/09/08 03:52:19;;;;;;;8.60;4.97;;;;;;;17.46;100.00;98440.84;5134137;27;20214;-80
2022/09/08 03:54:55;;;;;;;7.97;5.30;;;;;;;17.51;100.00;98443.91;5132024;27;20664;-80
2022/09/08 03:57:29;;;;;;;8.93;6.30;;;;;;;17.49;100.00;98447.75;5135008;27;20191;-80
2022/09/08 03:59:59;;;;;;;7.73;5.77;;;;;;;17.50;100.00;98444.06;5137715;27;20225;-80
2022/09/08 04:02:30;;;;;;;9.10;6.40;;;;;;;17.60;100.00;98445.63;5136431;27;20218;-81
2022/09/08 04:04:59;;;;;;;9.33;6.73;;;;;;;17.55;100.00;98439.91;5129730;27;20201;-82
2022/09/08 04:07:29;;;;;;;8.43;6.40;;;;;;;17.56;100.00;98446.94;5137571;27;20194;-82
2022/09/08 04:09:59;;;;;;;11.17;6.33;;;;;;;17.58;100.00;98441.44;5128095;27;20259;-82
2022/09/08 04:12:28;;;;;;;8.03;7.23;;;;;;;17.54;100.00;98435.53;5135058;27;20194;-82
2022/09/08 04:14:56;;;;;;;8.93;7.67;;;;;;;17.44;100.00;98433.00;5137166;27;20198;-82
2022/09/08 04:17:24;;;;;;;8.93;7.70;;;;;;;17.39;100.00;98426.44;5127987;27;20197;-82
2022/09/08 04:19:53;;;;;;;10.27;7.93;;;;;;;17.53;100.00;98438.38;5130737;27;20190;-82
2022/09/08 04:22:24;;;;;;;9.30;7.90;;;;;;;17.45;100.00;98434.66;5132859;27;20275;-82
2022/09/08 04:24:53;;;;;;;9.07;7.27;;;;;;;17.41;100.00;98435.16;5129946;27;20194;-82
2022/09/08 04:27:25;;;;;;;8.70;7.10;;;;;;;17.35;100.00;98433.94;5134522;27;20199;-82
2022/09/08 04:29:53;;;;;;;9.87;7.17;;;;;;;17.33;100.00;98438.63;5129531;27;20202;-82
2022/09/08 04:32:21;;;;;;;8.30;7.10;;;;;;;17.33;100.00;98435.09;5130854;27;20216;-83
2022/09/08 04:34:50;;;;;;;10.47;8.43;;;;;;;17.33;100.00;98432.44;5132912;27;20194;-83
2022/09/08 04:37:20;;;;;;;11.63;8.70;;;;;;;17.32;100.00;98430.75;5136565;27;20194;-83
2022/09/08 04:39:50;;;;;;;11.03;8.37;;;;;;;17.51;100.00;98422.50;5133757;27;20191;-83
2022/09/08 04:42:21;;;;;;;9.43;8.10;;;;;;;17.44;100.00;98426.78;5124135;27;20214;-82
2022/09/08 04:44:52;;;;;;;10.20;8.07;;;;;;;17.41;100.00;98424.44;5131377;27;20230;-82
2022/09/08 04:47:20;;;;;;;10.33;9.23;;;;;;;17.42;100.00;98413.56;5129320;27;20203;-82
2022/09/08 04:49:49;;;;;;;10.83;9.73;;;;;;;17.41;100.00;98416.41;5131276;27;20271;-82
2022/09/08 04:52:17;;;;;;;10.30;9.20;;;;;;;17.38;100.00;98414.91;5132914;27;20190;-82
2022/09/08 04:54:47;;;;;;;10.93;9.40;;;;;;;17.56;100.00;98416.63;5131776;27;20190;-83
2022/09/08 04:57:16;;;;;;;14.60;10.57;;;;;;;17.51;100.00;98421.66;5131660;27;20196;-83
2022/09/08 04:59:44;;;;;;;10.47;9.03;;;;;;;17.60;100.00;98426.03;5133307;27;20225;-84
2022/09/08 05:02:14;;;;;;;12.63;9.47;;;;;;;17.44;100.00;98416.91;5128522;27;20214;-84
2022/09/08 05:04:42;;;;;;;12.63;9.33;;;;;;;17.50;100.00;98414.63;5130611;27;20198;-83
2022/09/08 05:07:10;;;;;;;10.97;8.90;;;;;;;17.66;100.00;98414.66;5128237;27;20502;-84
2022/09/08 05:09:39;;;;;;;10.37;9.23;;;;;;;17.71;100.00;98421.25;5134313;27;20193;-83
2022/09/08 05:12:07;;;;;;;12.53;11.23;;;;;;;17.52;100.00;98415.28;5129599;27;20194;-84
2022/09/08 05:14:35;;;;;;;13.23;10.17;;;;;;;17.67;100.00;98416.38;5133584;27;20255;-84
2022/09/08 05:17:04;;;;;;;11.17;8.90;;;;;;;17.54;100.00;98411.44;5125692;27;20230;-83
2022/09/08 05:19:33;;;;;;;13.00;10.03;;;;;;;17.57;100.00;98405.78;5132902;27;20222;-83
2022/09/08 05:22:02;;;;;;;13.47;10.83;;;;;;;17.57;100.00;98413.81;5130755;27;20214;-84
2022/09/08 05:24:30;;;;;;;11.97;9.43;;;;;;;17.59;100.00;98413.66;5135808;27;20191;-84
2022/09/08 05:27:00;;;;;;;13.67;10.57;;;;;;;17.59;100.00;98406.47;5080448;27;20191;-83
2022/09/08 05:29:29;;;;;;;10.50;9.50;;;;;;;17.62;100.00;98416.84;5133216;27;20225;-83
2022/09/08 05:31:57;;;;;;;11.03;9.80;;;;;;;17.60;100.00;98408.13;5124067;27;20214;-83
2022/09/08 05:34:25;;;;;;;11.27;10.17;;;;;;;17.47;100.00;98410.44;5139529;27;20183;-82
2022/09/08 05:36:55;;;;;;;11.97;10.70;;;;;;;17.48;100.00;98412.09;5141047;27;20194;-83
2022/09/08 05:39:24;;;;;;;15.27;10.93;;;;;;;17.20;100.00;98415.97;5129117;27;20218;-83
2022/09/08 05:41:52;;;;;;;13.13;10.03;;;;;;;17.02;100.00;98419.53;5128482;27;20212;-84
2022/09/08 05:44:22;;;;;;;13.43;11.33;;;;;;;16.84;100.00;98424.91;5131834;27;20194;-84
2022/09/08 05:46:50;;;;;;;15.80;12.23;;;;;;;16.70;100.00;98428.16;5134561;27;20235;-83
2022/09/08 05:49:19;;;;;;;14.07;12.30;;;;;;;16.90;100.00;98436.00;5132048;27;20243;-84
2022/09/08 05:51:50;;;;;;;16.43;12.90;;;;;;;16.60;100.00;98438.09;5122418;27;20225;-84
2022/09/08 05:54:20;;;;;;;17.20;13.83;;;;;;;16.52;100.00;98441.50;5132416;27;20199;-83
2022/09/08 05:56:48;;;;;;;21.13;14.93;;;;;;;16.76;100.00;98440.06;5129678;27;20190;-84
2022/09/08 05:59:17;;;;;;;17.50;13.87;;;;;;;16.73;100.00;98443.06;5127513;27;20190;-83
2022/09/08 06:01:45;;;;;;;17.70;14.83;;;;;;;16.95;100.00;98445.22;5121463;27;20218;-84
2022/09/08 06:04:14;;;;;;;18.83;13.33;;;;;;;17.01;100.00;98451.81;5127623;27;20263;-84
2022/09/08 06:06:43;;;;;;;20.37;15.00;;;;;;;16.99;100.00;98451.13;5132511;27;20183;-84
2022/09/08 06:09:12;;;;;;;16.77;14.00;;;;;;;16.83;100.00;98450.00;5126333;27;20230;-85
2022/09/08 06:11:42;;;;;;;17.27;14.40;;;;;;;16.76;100.00;98454.28;5127467;27;20194;-84
2022/09/08 06:14:11;;;;;;;17.97;14.23;;;;;;;16.73;100.00;98451.06;5135072;27;20187;-84
2022/09/08 06:16:39;;;;;;;19.10;14.63;;;;;;;16.87;100.00;98453.19;5127018;27;20249;-83
2022/09/08 06:19:07;;;;;;;12.07;10.27;;;;;;;16.66;100.00;98455.31;5129824;27;20194;-84
2022/09/08 06:21:36;;;;;;;12.83;9.73;;;;;;;16.77;100.00;98452.44;5134816;27;20190;-84
2022/09/08 06:24:06;;;;;;;10.53;9.03;;;;;;;16.77;100.00;98455.94;5128792;27;20219;-83
2022/09/08 06:27:16;;;;;;;12.63;9.37;;;;;;;16.64;100.00;98460.00;5129842;27;20191;-83
2022/09/08 06:30:01;;;;;;;12.33;8.97;;;;;;;16.45;100.00;98453.81;5130899;27;20653;-83
2022/09/08 06:32:35;;;;;;;10.33;7.03;;;;;;;16.51;100.00;98463.91;5130252;27;20201;-84
2022/09/08 06:35:08;;;;;;;9.20;7.90;;;;;;;16.87;100.00;98459.38;5093513;27;20221;-85
2022/09/08 06:37:43;;;;;;;11.70;8.27;;;;;;;17.06;100.00;98449.47;5130543;27;20230;-84
2022/09/08 06:40:17;;;;;;;10.93;7.43;;;;;;;17.21;100.00;98466.66;5131597;27;20182;-84
2022/09/08 06:42:53;;;;;;;7.77;6.93;;;;;;;17.00;100.00;98459.00;5128338;27;20213;-85
2022/09/08 06:45:30;;;;;;;6.73;5.97;;;;;;;17.11;100.00;98458.72;5128243;27;20204;-85
2022/09/08 06:48:13;;;;;;;6.63;5.50;;;;;;;17.06;100.00;98460.19;5107729;27;20231;-85
2022/09/08 06:50:51;;;;;;;5.60;4.80;;;;;;;16.97;100.00;98455.75;5131623;27;20222;-85
2022/09/08 06:53:25;;;;;;;6.23;4.60;;;;;;;16.85;100.00;98465.88;5125194;27;20253;-85
2022/09/08 06:55:59;;;;;;;7.33;4.93;;;;;;;17.05;100.00;98448.66;5131399;27;20190;-85
2022/09/08 06:58:49;;;;;;;5.30;4.17;;;;;;;16.89;100.00;98453.91;5090927;27;20297;-85
2022/09/08 07:01:23;;;;;;;4.80;3.77;;;;;;;16.64;100.00;98460.00;5127873;27;20239;-85
2022/09/08 07:04:07;;;;;;;4.77;3.97;;;;;;;16.43;100.00;98454.97;5132732;27;20214;-85
2022/09/08 07:06:41;;;;;;;5.33;4.57;;;;;;;16.48;100.00;98453.50;5131242;27;20254;-86
2022/09/08 07:09:14;;;;;;;4.43;4.03;;;;;;;16.73;100.00;98451.91;5125722;27;20217;-85
2022/09/08 07:12:08;;;;;;;5.77;4.77;;;;;;;16.87;100.00;98448.66;5134000;28;20286;-85
2022/09/08 07:15:11;;;;;;;6.27;5.00;;;;;;;17.02;100.00;98454.31;5065150;28;20309;-85
2022/09/08 07:17:49;;;;;;;5.83;5.20;;;;;;;17.25;100.00;98451.09;5064255;28;20307;-85
2022/09/08 07:20:17;;;;;;;5.00;4.10;;;;;;;17.23;100.00;98450.44;5068188;28;20193;-84
2022/09/08 07:22:51;;;;;;;5.97;3.80;;;;;;;16.90;100.00;98439.53;5064798;28;20737;-85
2022/09/08 07:25:27;;;;;;;5.07;3.80;;;;;;;16.98;100.00;98441.38;5010919;28;20190;-85
2022/09/08 07:28:02;;;;;;;4.77;3.73;;;;;;;17.04;100.00;98446.13;5008922;28;20229;-84
2022/09/08 07:30:36;;;;;;;5.83;4.30;;;;;;;17.22;100.00;98436.22;5011974;28;20225;-84
2022/09/08 07:33:16;;;;;;;6.80;4.30;;;;;;;17.36;100.00;98445.50;5043700;28;20196;-85
2022/09/08 07:36:04;;;;;;;3.87;3.47;;;;;;;17.03;100.00;98437.25;5062231;28;20694;-85
2022/09/08 07:38:38;;;;;;;5.07;3.73;;;;;;;17.23;100.00;98437.88;5066994;28;20216;-84
2022/09/08 07:41:10;;;;;;;6.73;4.40;;;;;;;17.31;100.00;98434.44;5066533;28;20647;-84
2022/09/08 07:43:38;;;;;;;4.13;3.60;;;;;;;16.92;100.00;98436.69;5068018;28;20216;-84
2022/09/08 07:46:33;;;;;;;3.30;2.97;;;;;;;17.03;100.00;98436.44;5065158;28;20196;-84
2022/09/08 07:49:09;;;;;;;3.93;3.10;;;;;;;17.04;100.00;98432.75;5028928;28;20197;-84
2022/09/08 07:51:43;;;;;;;3.37;2.30;;;;;;;16.81;100.00;98435.09;5026431;28;20641;-84
2022/09/08 07:54:38;;;;;;;4.10;2.60;;;;;;;16.79;100.00;98432.59;5026623;28;20293;-84
2022/09/08 07:57:12;;;;;;;3.50;2.87;;;;;;;16.74;100.00;98439.38;5055154;28;20231;-84
2022/09/08 08:00:09;;;;;;;5.27;2.70;;;;;;;16.94;100.00;98446.22;5070391;28;20201;-84
2022/09/08 08:03:08;;;;;;;3.13;2.33;;;;;;;16.88;100.00;98442.31;5061867;28;20226;-84
2022/09/08 08:05:44;;;;;;;3.67;2.50;;;;;;;17.03;100.00;98431.06;5070295;28;20291;-84
2022/09/08 08:08:20;;;;;;;4.37;2.87;;;;;;;16.94;100.00;98440.03;5123752;28;20193;-84
2022/09/08 08:10:58;;;;;;;4.97;3.23;;;;;;;17.09;100.00;98441.16;5132651;28;20195;-84
2022/09/08 08:13:39;;;;;;;5.23;3.40;;;;;;;17.01;100.00;98443.78;5131752;28;20190;-84
2022/09/08 08:16:10;;;;;;;4.17;3.77;;;;;;;16.98;100.00;98444.06;5132193;28;20712;-84
2022/09/08 08:18:53;;;;;;;4.50;3.50;;;;;;;17.24;100.00;98447.59;5127642;28;20193;-84
2022/09/08 08:21:25;;;;;;;5.57;4.00;;;;;;;17.01;100.00;98451.81;5129565;28;20190;-84
2022/09/08 08:24:08;;;;;;;7.27;4.83;;;;;;;16.96;100.00;98462.13;5133394;28;20267;-84
2022/09/08 08:26:45;;;;;;;5.50;4.83;;;;;;;16.88;100.00;98477.09;5130009;27;20226;-85
2022/09/08 08:29:38;;;;;;;7.73;4.83;;;;;;;16.86;100.00;98470.22;5130208;27;20221;-84
2022/09/08 08:32:11;;;;;;;5.57;5.07;;;;;;;16.95;100.00;98479.16;5134866;27;20270;-84
2022/09/08 08:35:07;;;;;;;6.97;5.30;;;;;;;16.81;100.00;98483.25;5137166;27;20202;-85
2022/09/08 08:37:40;;;;;;;7.77;5.80;;;;;;;16.90;100.00;98493.03;5133648;27;20281;-85
2022/09/08 08:40:27;;;;;;;5.83;5.00;;;;;;;16.90;100.00;98486.84;5132955;27;20229;-85
2022/09/08 08:43:11;;;;;;;7.47;4.90;;;;;;;16.95;100.00;98500.56;5132012;27;20687;-85
2022/09/08 08:45:49;;;;;;;5.03;4.53;;;;;;;16.88;100.00;98506.53;5136894;27;20186;-85
2022/09/08 08:48:36;;;;;;;3.87;3.30;;;;;;;16.70;100.00;98500.38;5129837;27;20202;-84
2022/09/08 08:51:28;;;;;;;4.47;3.10;;;;;;;16.83;100.00;98503.50;5098843;27;20225;-84
2022/09/08 08:54:14;;;;;;;4.50;4.07;;;;;;;16.71;100.00;98510.06;5137783;27;20219;-83
2022/09/08 08:56:47;;;;;;;4.33;3.33;;;;;;;16.85;100.00;98498.81;5097611;27;20226;-84
2022/09/08 08:59:44;;;;;;;3.23;2.60;;;;;;;16.95;100.00;98501.41;5131945;27;20198;-84
2022/09/08 09:02:49;;;;;;;3.80;2.70;;;;;;;17.08;100.00;98492.97;5010916;28;20669;-84
2022/09/08 09:05:36;;;;;;;5.37;2.63;;;;;;;17.01;100.00;98506.16;5011048;28;20214;-84
2022/09/08 09:08:29;;;;;;;4.00;2.93;;;;;;;17.30;100.00;98505.03;5007629;28;20190;-83
2022/09/08 09:11:09;;;;;;;3.50;3.00;;;;;;;17.07;100.00;98508.19;5011470;28;20233;-83
2022/09/08 09:13:57;;;;;;;4.83;3.30;;;;;;;17.51;100.00;98501.97;5011653;28;20226;-84
2022/09/08 09:16:50;;;;;;;3.40;2.90;;;;;;;17.42;100.00;98507.28;5000493;28;20230;-83
2022/09/08 09:19:37;;;;;;;3.83;2.40;;;;;;;17.64;100.00;98505.06;5013672;27;20212;-84
2022/09/08 09:22:22;;;;;;;6.43;2.50;;;;;;;17.76;100.00;98494.94;5133137;27;20190;-84
2022/09/08 09:25:12;;;;;;;3.10;2.30;;;;;;;17.48;100.00;98494.28;5129442;27;20249;-83
2022/09/08 09:27:45;;;;;;;2.40;2.20;;;;;;;17.78;100.00;98487.59;5132215;27;20190;-82
2022/09/08 09:30:21;;;;;;;2.57;2.37;;;;;;;17.67;100.00;98469.94;5133644;27;20231;-83
2022/09/08 09:33:19;;;;;;;2.37;1.97;;;;;;;17.76;100.00;98473.50;5128187;27;20221;-83
2022/09/08 09:36:30;;;;;;;2.27;1.97;;;;;;;17.65;100.00;98461.19;5133008;27;20212;-83
2022/09/08 09:39:31;;;;;;;2.53;1.83;;;;;;;17.88;100.00;98457.00;5132988;27;20245;-82
2022/09/08 09:42:24;;;;;;;1.83;1.70;;;;;;;17.91;100.00;98451.31;5130816;27;20198;-82
2022/09/08 09:45:18;;;;;;;3.67;1.73;;;;;;;18.14;100.00;98458.75;5131720;27;20245;-83
2022/09/08 09:48:21;;;;;;;2.03;1.70;;;;;;;18.10;100.00;98454.72;5130840;27;20340;-82
2022/09/08 09:51:01;;;;;;;2.70;1.80;;;;;;;18.22;100.00;98448.03;5117976;27;20225;-82
2022/09/08 09:53:46;;;;;;;2.53;1.60;;;;;;;18.40;100.00;98446.06;5133783;27;20198;-82
2022/09/08 09:56:52;;;;;;;2.53;1.67;;;;;;;18.14;100.00;98443.50;5131227;27;20285;-81
2022/09/08 10:00:13;;;;;;;4.10;1.63;;;;;;;18.23;100.00;98439.84;5129829;27;20202;-82
2022/09/08 10:03:15;;;;;;;2.60;1.60;;;;;;;18.62;100.00;98439.22;5123647;27;20198;-83
2022/09/08 10:06:15;;;;;;;3.67;1.50;;;;;;;18.21;100.00;98432.97;5133483;27;20677;-82
2022/09/08 10:09:21;;;;;;;1.70;1.60;;;;;;;18.27;100.00;98445.72;5128920;27;20194;-82
2022/09/08 10:12:30;;;;;;;2.50;1.77;;;;;;;18.54;100.00;98450.81;5133106;27;20197;-81
2022/09/08 10:15:47;;;;;;;3.03;1.67;;;;;;;19.58;100.00;98433.09;5130874;27;20196;-82
2022/09/08 10:18:54;;;;;;;1.90;1.60;;;;;;;19.71;100.00;98436.09;5132540;27;20194;-82
2022/09/08 10:22:14;;;;;;;2.37;1.30;;;;;;;19.30;100.00;98429.97;5133488;27;20197;-82
2022/09/08 10:25:17;;;;;;;1.73;1.40;;;;;;;19.27;100.00;98420.41;5102240;27;20246;-81
2022/09/08 10:28:21;;;;;;;2.73;1.50;;;;;;;19.52;100.00;98417.66;5098857;27;20198;-81
2022/09/08 10:31:28;;;;;;;2.07;1.40;;;;;;;20.30;100.00;98412.25;5135364;27;20191;-82
2022/09/08 10:34:33;;;;;;;2.23;1.37;;;;;;;19.21;100.00;98409.53;5098150;27;20194;-81
2022/09/08 10:37:04;;;;;;;2.97;1.17;;;;;;;19.26;100.00;98416.06;5072594;28;20200;-82
2022/09/08 10:40:11;;;;;;;2.17;1.20;;;;;;;18.96;100.00;98424.84;5072331;28;20247;-82
2022/09/08 10:42:47;;;;;;;1.73;1.20;;;;;;;18.97;100.00;98410.41;5012734;28;20194;-82
2022/09/08 10:45:21;;;;;;;1.90;1.03;;;;;;;19.07;100.00;98416.44;5008926;28;20291;-82
2022/09/08 10:48:49;;;;;;;3.33;1.20;;;;;;;18.91;100.00;98411.06;5004444;28;20217;-81
2022/09/08 10:51:52;;;;;;;2.20;1.40;;;;;;;18.82;100.00;98411.09;4978099;28;20661;-80
2022/09/08 10:55:04;;;;;;;2.00;1.10;;;;;;;19.49;100.00;98402.72;5012521;28;20200;-82
2022/09/08 10:57:53;;;;;;;3.97;1.20;;;;;;;19.70;100.00;98413.75;5039394;28;20223;-81
2022/09/08 11:00:23;;;;;;;1.90;1.00;;;;;;;20.04;100.00;98395.63;5075224;27;20247;-81
2022/09/08 11:03:29;;;;;;;1.27;1.10;;;;;;;20.27;100.00;98391.94;5134068;27;20633;-81
2022/09/08 11:06:06;;;;;;;1.70;1.13;;;;;;;20.82;100.00;98381.94;5130539;27;20231;-81
2022/09/08 11:09:13;;;;;;;2.27;1.23;;;;;;;21.06;100.00;98392.47;5131014;27;20182;-82
2022/09/08 11:12:12;;;;;;;1.10;0.97;;;;;;;20.96;100.00;98388.38;5129959;27;20198;-82
2022/09/08 11:15:21;;;;;;;1.50;1.00;;;;;;;20.86;100.00;98392.19;5066028;28;20285;-81
2022/09/08 11:17:52;;;;;;;2.50;1.10;;;;;;;20.60;100.00;98399.78;5010087;28;20194;-80
2022/09/08 11:20:32;;;;;;;2.53;0.93;;;;;;;20.96;100.00;98388.38;5009617;28;20310;-81
2022/09/08 11:23:33;;;;;;;2.73;1.20;;;;;;;21.21;100.00;98400.56;4992196;28;20249;-81
2022/09/08 11:26:29;;;;;;;1.97;0.90;;;;;;;21.53;100.00;98395.88;4990544;28;20253;-81
2022/09/08 11:29:09;;;;;;;2.23;1.00;;;;;;;21.84;100.00;98385.72;4985464;28;20203;-83
2022/09/08 11:31:54;;;;;;;1.27;0.67;;;;;;;21.63;100.00;98385.66;4986992;28;20226;-81
2022/09/08 11:34:58;;;;;;;0.77;0.70;;;;;;;21.65;100.00;98384.44;4981655;28;20202;-81
2022/09/08 11:38:00;;;;;;;1.43;0.80;;;;;;;21.60;100.00;98383.31;5047385;28;20188;-81
2022/09/08 11:40:45;;;;;;;1.40;0.80;;;;;;;21.51;100.00;98392.50;5084046;28;20681;-82
2022/09/08 11:43:30;;;;;;;1.50;0.90;;;;;;;21.81;100.00;98385.22;5085019;28;20230;-81
2022/09/08 11:46:20;;;;;;;1.80;0.80;;;;;;;21.64;100.00;98390.00;5081040;28;20323;-81
2022/09/08 11:52:04;;;;;;;1.80;0.70;;;;;;;22.00;100.00;98390.03;5111069;27;20654;-81
2022/09/08 11:55:16;;;;;;;2.60;0.90;;;;;;;22.53;100.00;98382.53;5110923;28;20222;-81
2022/09/08 11:58:01;;;;;;;1.63;0.90;;;;;;;22.11;100.00;98386.88;5111102;28;20588;-80
2022/09/08 12:01:01;;;;;;;1.37;0.70;;;;;;;22.57;100.00;98386.50;5109120;28;20232;-81
2022/09/08 12:03:56;;;;;;;1.53;0.70;;;;;;;21.76;100.00;98401.16;5109363;28;20245;-81
2022/09/08 12:06:58;;;;;;;1.30;0.80;;;;;;;21.49;100.00;98398.09;5110456;28;20190;-81
2022/09/08 12:10:03;;;;;;;1.50;0.60;;;;;;;21.94;100.00;98394.34;5107788;28;20198;-81
2022/09/08 12:12:47;;;;;;;0.57;0.50;;;;;;;21.58;100.00;98415.00;5106237;28;20281;-80
2022/09/08 12:15:42;;;;;;;2.33;0.80;;;;;;;22.14;100.00;98382.97;5049491;28;20193;-81
2022/09/08 12:18:30;;;;;;;1.47;0.60;;;;;;;22.13;100.00;98401.00;5048654;28;20287;-81
2022/09/08 12:21:26;;;;;;;3.03;0.90;;;;;;;22.15;100.00;98385.47;4985598;28;20199;-80
2022/09/08 12:24:08;;;;;;;1.90;0.90;;;;;;;21.98;100.00;98378.59;4978518;28;20207;-79